Terminal Aerodrome Forecast
Issued by NWS

Home | Current Version | Previous Version | Text Only | Print | Product List | Glossary On
Versions: 1 2 3 4 5 6 7 8 9 10 11 12 13 14 15
895
FTUS43 KFGF 130521
TAFTVF
TAF
KTVF 130521Z 1306/1406 VRB04KT P6SM FEW250
     FM131800 14009KT P6SM SCT250
     FM132200 14012G17KT P6SM BKN200
     FM140200 14016G25KT P6SM BKN080=

USA.gov is the U.S. government's official web portal to all federal, state and local government web resources and services.